createdAt,value
2023-02-11T00:00:09.131Z,1.12
2023-02-11T00:10:46.972Z,1.12
2023-02-11T00:21:25.885Z,1.09
2023-02-11T00:26:44.251Z,1.1
2023-02-11T00:37:22.454Z,1.07
2023-02-11T00:42:42.148Z,1.1
2023-02-11T00:53:20.793Z,1.09
2023-02-11T01:03:59.515Z,1.07
2023-02-11T01:09:19.205Z,1.07
2023-02-11T01:19:57.766Z,1.03
2023-02-11T01:25:16.575Z,1.05
2023-02-11T01:35:55.353Z,1.03
2023-02-11T01:51:53.687Z,1.04
2023-02-11T02:02:32.489Z,1.03
2023-02-11T02:07:52.042Z,1.04
2023-02-11T02:23:50.307Z,1
2023-02-11T02:34:29.897Z,1
2023-02-11T02:48:22.356Z,0.99
2023-02-11T02:50:28.336Z,1
2023-02-11T03:01:06.898Z,0.99
2023-02-11T03:06:26.058Z,1
2023-02-11T03:17:04.616Z,1
2023-02-11T03:27:43.529Z,0.99
2023-02-11T03:33:03.180Z,0.99
2023-02-11T03:43:41.849Z,0.99
2023-02-11T03:49:01.180Z,1
2023-02-11T03:59:40.230Z,0.99
2023-02-11T04:10:19.358Z,0.97
2023-02-11T04:15:39.071Z,0.99
2023-02-11T04:26:16.899Z,0.97
2023-02-11T04:36:55.510Z,0.99
2023-02-11T04:42:14.348Z,0.97
2023-02-11T04:58:12.348Z,0.96
2023-02-11T05:08:51.677Z,0.99
2023-02-11T05:14:11.457Z,0.99
2023-02-11T05:24:50.375Z,0.97
2023-02-11T05:35:29.094Z,0.96
2023-02-11T05:40:48.074Z,0.99
2023-02-11T05:51:26.616Z,0.97
2023-02-11T05:56:45.869Z,0.95
2023-02-11T06:18:03.005Z,0.95
2023-02-11T06:31:55.721Z,0.96
2023-02-11T06:33:59.696Z,0.96
2023-02-11T06:39:19.181Z,0.97
2023-02-11T06:44:38.650Z,0.95
2023-02-11T06:49:57.565Z,0.96
2023-02-11T07:00:35.660Z,0.95
2023-02-11T07:11:14.762Z,0.96
2023-02-11T07:16:34.210Z,0.97
2023-02-11T07:27:13.294Z,0.99
2023-02-11T07:39:07.066Z,1.03
2023-02-11T07:43:23.639Z,1.05
2023-02-11T07:53:51.062Z,1.07
2023-02-11T07:59:10.549Z,1.05
2023-02-11T08:09:48.077Z,1.1
2023-02-11T08:15:07.438Z,1.12
2023-02-11T08:25:46.740Z,1.19
2023-02-11T08:41:44.590Z,1.32
2023-02-11T08:52:23.041Z,1.37
2023-02-11T08:57:42.572Z,1.44
2023-02-11T09:03:01.412Z,1.66
2023-02-11T09:08:20.225Z,1.82
2023-02-11T09:18:59.250Z,2.04
2023-02-11T09:24:18.464Z,2.25
2023-02-11T09:34:56.610Z,2.67
2023-02-11T09:40:15.774Z,2.89
2023-02-11T09:50:53.511Z,3.3
2023-02-11T10:06:51.521Z,3.99
2023-02-11T10:17:30.043Z,4.36
2023-02-11T10:22:49.567Z,4.59
2023-02-11T10:33:28.067Z,5
2023-02-11T10:38:47.682Z,5.21
2023-02-11T10:49:26.660Z,5.51
2023-02-11T11:00:04.907Z,5.52
2023-02-11T11:05:24.407Z,5.58
2023-02-11T11:16:05.462Z,5.56
2023-02-11T11:32:01.339Z,5.59
2023-02-11T11:42:38.877Z,5.58
2023-02-11T11:47:58.489Z,5.58
2023-02-11T11:58:36.746Z,5.59
2023-02-11T12:03:55.816Z,5.59
2023-02-11T12:14:34.916Z,5.62
2023-02-11T12:21:09.133Z,5.63
2023-02-11T12:30:33.570Z,5.66
2023-02-11T12:41:12.115Z,5.7
2023-02-11T12:46:30.989Z,5.72
2023-02-11T13:07:46.618Z,5.7
2023-02-11T13:23:44.643Z,5.72
2023-02-11T13:29:03.457Z,5.69
2023-02-11T13:34:22.354Z,5.69
2023-02-11T13:39:41.408Z,5.68
2023-02-11T13:50:20.221Z,5.7
2023-02-11T14:00:59.471Z,5.68
2023-02-11T14:06:18.799Z,5.72
2023-02-11T14:16:57.401Z,5.7
2023-02-11T14:22:16.456Z,5.72
2023-02-11T14:32:55.685Z,5.72
2023-02-11T14:48:54.516Z,5.65
2023-02-11T14:59:32.508Z,5.6
2023-02-11T15:04:52.174Z,5.59
2023-02-11T15:15:30.488Z,5.54
2023-02-11T15:31:28.193Z,5.47
2023-02-11T15:47:25.668Z,5.41
2023-02-11T15:58:04.846Z,5.34
2023-02-11T16:03:24.142Z,5.28
2023-02-11T16:14:03.671Z,5.3
2023-02-11T16:30:00.810Z,5.21
2023-02-11T16:40:38.966Z,5.15
2023-02-11T16:45:57.754Z,5.13
2023-02-11T16:56:37.223Z,5.05
2023-02-11T17:12:35.160Z,5.01
2023-02-11T17:28:58.895Z,4.94
2023-02-11T17:44:56.947Z,4.91
2023-02-11T17:55:36.101Z,4.85
2023-02-11T18:00:55.578Z,4.84
2023-02-11T18:11:34.170Z,4.8
2023-02-11T18:16:53.913Z,4.79
2023-02-11T18:27:32.656Z,4.76
2023-02-11T18:38:10.884Z,4.73
2023-02-11T18:43:30.644Z,4.69
2023-02-11T18:48:50.227Z,4.67
2023-02-11T18:54:09.858Z,4.69
2023-02-11T18:59:28.709Z,4.64
2023-02-11T19:10:06.578Z,4.63
2023-02-11T19:20:44.984Z,4.6
2023-02-11T19:26:04.632Z,4.59
2023-02-11T19:31:23.743Z,4.57
2023-02-11T19:36:42.821Z,4.56
2023-02-11T19:47:20.498Z,4.52
2023-02-11T19:52:40.970Z,4.48
2023-02-11T20:13:58.243Z,4.42
2023-02-11T20:19:17.551Z,4.39
2023-02-11T20:29:56.451Z,4.36
2023-02-11T20:35:15.957Z,4.36
2023-02-11T20:45:54.019Z,4.33
2023-02-11T20:56:32.852Z,4.3
2023-02-11T21:01:52.255Z,4.28
2023-02-11T21:12:31.327Z,4.23
2023-02-11T21:17:50.754Z,4.25
2023-02-11T21:28:29.459Z,4.21
2023-02-11T21:39:07.934Z,4.21
2023-02-11T21:44:27.009Z,4.21
2023-02-11T22:00:26.799Z,4.17
2023-02-11T22:11:05.819Z,4.19
2023-02-11T22:21:43.864Z,4.16
2023-02-11T22:27:03.106Z,4.15
2023-02-11T22:37:41.180Z,4.12
2023-02-11T22:53:38.487Z,4.09
2023-02-11T23:04:16.560Z,4.1
2023-02-11T23:09:36.010Z,4.1
2023-02-11T23:20:14.611Z,4.08
2023-02-11T23:25:34.397Z,4.05
2023-02-11T23:36:12.955Z,4.06
2023-02-11T23:52:09.019Z,4.03
